Time;durP1;ratioP1;P1;durP2;ratioP2;P2;SDS_P1;SDS_P2;PMS_P1;PMS_P2;Temp;Humidity;BMP_temperature;BMP_pressure;BME280_temperature;BME280_humidity;BME280_pressure;Samples;Min_cycle;Max_cycle;Signal;HPM_P1;HPM_P2
2022/07/14 00:00:53;;;;;;;3.42;0.90;;;21.00;49.00;;;;;;4995918;28;20030;-74
2022/07/14 00:03:19;;;;;;;1.73;0.57;;;20.90;48.80;;;;;;4993416;28;20513;-75
2022/07/14 00:05:46;;;;;;;2.88;0.85;;;20.90;48.80;;;;;;4988123;28;20110;-75
2022/07/14 00:08:11;;;;;;;1.65;0.80;;;20.90;48.90;;;;;;4985924;28;20038;-75
2022/07/14 00:10:37;;;;;;;1.35;0.60;;;20.80;48.70;;;;;;4990054;28;20022;-75
2022/07/14 00:13:03;;;;;;;2.58;0.55;;;20.80;48.80;;;;;;4989521;28;20085;-75
2022/07/14 00:15:30;;;;;;;0.82;0.60;;;20.70;48.70;;;;;;4992502;28;20474;-75
2022/07/14 00:17:58;;;;;;;2.40;0.70;;;20.70;48.70;;;;;;5006089;28;20550;-75
2022/07/14 00:20:24;;;;;;;3.13;1.10;;;20.70;48.70;;;;;;4989483;28;20034;-75
2022/07/14 00:22:50;;;;;;;1.98;0.57;;;20.60;48.60;;;;;;4992541;28;20030;-77
2022/07/14 00:25:16;;;;;;;1.45;0.85;;;20.60;48.60;;;;;;4990585;28;20101;-75
2022/07/14 00:27:43;;;;;;;1.23;0.65;;;20.50;48.40;;;;;;4997983;28;20225;-74
2022/07/14 00:30:10;;;;;;;0.70;0.60;;;20.50;48.50;;;;;;4993272;28;20083;-75
2022/07/14 00:32:39;;;;;;;1.60;0.70;;;20.50;48.50;;;;;;4991503;28;20081;-75
2022/07/14 00:35:05;;;;;;;1.20;0.60;;;20.40;48.40;;;;;;4996762;28;20037;-74
2022/07/14 00:37:31;;;;;;;2.10;0.98;;;20.40;48.40;;;;;;4989004;28;20026;-75
2022/07/14 00:39:58;;;;;;;1.00;0.50;;;20.30;48.30;;;;;;4992839;28;20033;-76
2022/07/14 00:42:51;;;;;;;0.60;0.60;;;20.30;48.30;;;;;;4996345;28;20057;-75
2022/07/14 00:45:20;;;;;;;1.63;0.73;;;20.20;48.30;;;;;;4994334;28;20034;-75
2022/07/14 00:47:47;;;;;;;0.98;0.50;;;20.20;48.20;;;;;;4995695;28;20034;-75
2022/07/14 00:50:16;;;;;;;1.30;0.50;;;20.10;48.10;;;;;;4990393;28;20037;-75
2022/07/14 00:52:43;;;;;;;1.27;0.60;;;20.10;48.10;;;;;;4999563;28;20026;-76
2022/07/14 00:55:12;;;;;;;1.60;0.93;;;20.10;48.20;;;;;;5018337;28;20029;-75
2022/07/14 00:57:38;;;;;;;2.28;0.60;;;20.00;48.00;;;;;;5000975;28;20029;-75
2022/07/14 01:00:10;;;;;;;1.05;0.50;;;20.00;48.10;;;;;;4994526;28;20113;-75
2022/07/14 01:02:36;;;;;;;1.57;0.53;;;19.90;47.90;;;;;;5033885;28;20014;-75
2022/07/14 01:05:03;;;;;;;1.95;0.65;;;19.90;47.90;;;;;;5040679;28;20864;-75
2022/07/14 01:07:29;;;;;;;1.17;0.65;;;19.90;48.60;;;;;;5007980;28;20225;-75
2022/07/14 01:09:55;;;;;;;2.15;0.70;;;19.80;47.90;;;;;;4991040;28;20030;-75
2022/07/14 01:12:23;;;;;;;1.33;0.70;;;19.70;47.80;;;;;;4993276;28;20034;-76
2022/07/14 01:14:49;;;;;;;0.90;0.60;;;19.70;47.90;;;;;;4994024;28;20509;-76
2022/07/14 01:17:15;;;;;;;0.93;0.55;;;19.60;47.70;;;;;;4994242;28;20037;-76
2022/07/14 01:19:41;;;;;;;0.90;0.60;;;19.60;47.80;;;;;;4992956;28;20111;-76
2022/07/14 01:22:08;;;;;;;1.08;0.70;;;19.50;47.70;;;;;;4998705;28;20501;-75
2022/07/14 01:24:34;;;;;;;1.40;0.70;;;19.40;47.60;;;;;;4988843;28;20029;-75
2022/07/14 01:27:02;;;;;;;2.17;0.90;;;19.40;47.70;;;;;;5005190;28;20114;-76
2022/07/14 01:29:28;;;;;;;0.90;0.47;;;19.40;47.80;;;;;;4997666;28;20493;-75
2022/07/14 01:31:54;;;;;;;1.52;0.60;;;19.30;47.70;;;;;;4996397;28;20397;-75
2022/07/14 01:34:20;;;;;;;1.73;0.68;;;19.30;47.80;;;;;;5004331;28;20031;-75
2022/07/14 01:36:49;;;;;;;1.13;0.60;;;19.30;47.80;;;;;;4995000;28;20034;-75
2022/07/14 01:39:15;;;;;;;1.75;0.65;;;19.20;47.70;;;;;;5012954;28;20033;-75
2022/07/14 01:41:41;;;;;;;1.73;0.80;;;19.10;47.70;;;;;;4997309;28;20026;-75
2022/07/14 01:44:07;;;;;;;1.42;0.65;;;19.10;47.70;;;;;;4993665;28;20452;-75
2022/07/14 01:46:33;;;;;;;1.15;0.90;;;19.00;47.60;;;;;;4993549;28;20053;-75
2022/07/14 01:49:01;;;;;;;1.42;0.77;;;19.00;47.60;;;;;;4992517;28;20034;-75
2022/07/14 01:51:28;;;;;;;0.60;0.60;;;18.90;47.50;;;;;;4987867;28;20027;-75
2022/07/14 01:53:55;;;;;;;1.08;0.50;;;18.90;47.60;;;;;;4993994;28;20073;-75
2022/07/14 01:56:22;;;;;;;2.15;1.27;;;18.80;47.50;;;;;;4985827;28;20030;-76
2022/07/14 01:58:50;;;;;;;1.63;0.60;;;18.80;47.60;;;;;;4991668;28;20574;-75
2022/07/14 02:04:02;;;;;;;1.77;0.60;;;18.70;47.50;;;;;;5013584;28;20034;-74
2022/07/14 02:06:29;;;;;;;0.60;0.50;;;18.60;47.40;;;;;;4990162;28;20034;-75
2022/07/14 02:08:59;;;;;;;3.05;0.70;;;18.60;47.50;;;;;;4997851;28;20048;-75
2022/07/14 02:14:11;;;;;;;1.15;0.70;;;18.50;47.50;;;;;;5013112;28;20038;-75
2022/07/14 02:16:40;;;;;;;1.10;0.60;;;18.40;47.50;;;;;;4996607;28;20031;-76
2022/07/14 02:19:07;;;;;;;1.83;0.75;;;18.40;47.50;;;;;;4998336;28;20414;-76
2022/07/14 02:21:33;;;;;;;2.08;0.93;;;18.30;47.40;;;;;;4999064;28;20022;-76
2022/07/14 02:24:02;;;;;;;1.17;0.50;;;18.30;47.50;;;;;;4999183;28;20127;-75
2022/07/14 02:26:28;;;;;;;1.45;0.80;;;18.20;47.40;;;;;;4997398;28;20045;-75
2022/07/14 02:28:57;;;;;;;0.85;0.60;;;18.20;47.50;;;;;;4997890;28;20189;-75
2022/07/14 02:31:23;;;;;;;1.30;0.80;;;18.20;47.60;;;;;;4995467;28;20068;-75
2022/07/14 02:33:49;;;;;;;1.88;0.60;;;18.10;47.40;;;;;;4993461;28;20026;-75
2022/07/14 02:36:15;;;;;;;1.45;0.80;;;18.10;47.50;;;;;;5002119;28;20030;-74
2022/07/14 02:38:42;;;;;;;0.70;0.68;;;18.00;47.40;;;;;;4978472;28;20037;-75
2022/07/14 02:41:08;;;;;;;2.85;1.05;;;18.00;47.50;;;;;;5007347;28;20038;-74
2022/07/14 02:43:34;;;;;;;2.00;0.52;;;17.90;47.40;;;;;;4996864;28;20034;-75
2022/07/14 02:46:01;;;;;;;3.65;0.80;;;17.90;47.50;;;;;;5000722;28;20034;-75
2022/07/14 02:48:27;;;;;;;1.00;0.63;;;17.90;47.60;;;;;;5001464;28;20033;-75
2022/07/14 02:51:01;;;;;;;2.80;1.35;;;17.80;47.50;;;;;;5000664;28;20080;-75
2022/07/14 02:53:27;;;;;;;0.93;0.70;;;17.80;47.50;;;;;;5012736;28;20037;-75
2022/07/14 02:55:54;;;;;;;0.93;0.63;;;17.80;47.60;;;;;;4998785;28;20065;-75
2022/07/14 02:58:21;;;;;;;0.80;0.70;;;17.70;47.50;;;;;;5000732;28;20026;-75
2022/07/14 03:00:47;;;;;;;1.10;0.70;;;17.70;47.60;;;;;;4997265;28;20466;-75
2022/07/14 03:03:14;;;;;;;1.48;0.70;;;17.60;47.50;;;;;;5001012;28;20469;-74
2022/07/14 03:05:40;;;;;;;1.92;0.98;;;17.60;47.60;;;;;;4999885;28;20034;-75
2022/07/14 03:08:06;;;;;;;1.48;0.50;;;17.50;47.50;;;;;;5008652;28;20045;-75
2022/07/14 03:10:33;;;;;;;1.63;0.75;;;17.50;47.60;;;;;;5010387;28;20046;-75
2022/07/14 03:12:59;;;;;;;0.60;0.50;;;17.40;47.50;;;;;;4982474;28;20038;-75
2022/07/14 03:15:25;;;;;;;1.48;0.75;;;17.40;47.60;;;;;;4995166;28;20501;-75
2022/07/14 03:17:50;;;;;;;0.93;0.63;;;17.30;47.40;;;;;;4999108;28;20121;-75
2022/07/14 03:20:18;;;;;;;0.82;0.55;;;17.30;47.50;;;;;;5000537;28;20036;-75
2022/07/14 03:22:45;;;;;;;1.02;0.68;;;17.30;47.60;;;;;;4996124;28;20253;-75
2022/07/14 03:25:18;;;;;;;1.13;0.73;;;17.20;47.60;;;;;;5005485;28;20034;-74
2022/07/14 03:27:46;;;;;;;5.43;1.00;;;17.10;47.40;;;;;;4993682;28;20193;-75
2022/07/14 03:30:14;;;;;;;1.63;0.80;;;17.10;47.60;;;;;;5007232;28;20029;-76
2022/07/14 03:35:43;;;;;;;1.02;0.77;;;17.00;47.60;;;;;;5256582;23;20349;-74
2022/07/14 03:38:09;;;;;;;1.23;0.60;;;17.00;47.60;;;;;;4823285;29;20122;-74
2022/07/14 03:40:37;;;;;;;1.52;0.70;;;17.00;47.60;;;;;;4829681;29;20108;-75
2022/07/14 03:43:03;;;;;;;2.15;0.98;;;16.90;47.50;;;;;;4824491;29;20057;-74
2022/07/14 03:45:30;;;;;;;5.00;1.10;;;16.90;47.60;;;;;;4837298;29;20041;-74
2022/07/14 03:47:57;;;;;;;0.90;0.70;;;16.80;47.50;;;;;;4804665;29;20046;-74
2022/07/14 03:50:23;;;;;;;1.60;0.80;;;16.80;47.60;;;;;;4811951;29;20038;-74
2022/07/14 03:52:49;;;;;;;3.15;0.80;;;16.80;47.70;;;;;;4798672;29;20062;-75
2022/07/14 03:55:15;;;;;;;4.18;0.93;;;16.70;47.60;;;;;;4797944;29;20034;-74
2022/07/14 03:57:43;;;;;;;1.80;0.70;;;16.60;47.50;;;;;;4815245;29;20030;-75
2022/07/14 04:00:11;;;;;;;2.25;1.00;;;16.70;47.80;;;;;;4813930;29;20076;-75
2022/07/14 04:02:42;;;;;;;1.25;0.77;;;16.60;47.70;;;;;;4815246;29;20031;-75
2022/07/14 04:05:13;;;;;;;0.75;0.60;;;16.50;47.60;;;;;;4799965;29;20041;-74
2022/07/14 04:07:39;;;;;;;1.40;1.00;;;16.50;47.70;;;;;;4800163;29;20503;-74
2022/07/14 04:10:08;;;;;;;2.05;1.15;;;16.40;47.60;;;;;;4808973;29;20819;-74
2022/07/14 04:12:34;;;;;;;1.05;0.60;;;16.40;47.70;;;;;;4801811;29;20038;-75
2022/07/14 04:15:00;;;;;;;2.20;1.15;;;16.40;47.80;;;;;;4798530;29;20027;-74
2022/07/14 04:17:27;;;;;;;1.23;1.13;;;16.30;47.70;;;;;;4813921;29;20035;-74
2022/07/14 04:19:53;;;;;;;2.15;0.90;;;16.30;47.80;;;;;;4798267;29;20030;-74
2022/07/14 04:22:19;;;;;;;1.92;0.77;;;16.30;47.90;;;;;;4811182;29;20042;-74
2022/07/14 04:24:46;;;;;;;0.95;0.68;;;16.20;47.80;;;;;;4797953;29;20030;-74
2022/07/14 04:27:12;;;;;;;2.03;0.65;;;16.20;47.90;;;;;;4814119;29;20134;-75
2022/07/14 04:29:38;;;;;;;2.10;0.63;;;16.20;48.00;;;;;;4798490;29;20117;-75
2022/07/14 04:32:04;;;;;;;1.88;0.60;;;16.10;47.80;;;;;;4798292;29;20069;-75
2022/07/14 04:34:30;;;;;;;0.65;0.65;;;16.10;47.90;;;;;;4815222;29;20038;-74
2022/07/14 04:36:57;;;;;;;0.93;0.85;;;16.10;48.00;;;;;;4798838;29;20046;-75
2022/07/14 04:39:23;;;;;;;1.35;0.60;;;16.10;48.10;;;;;;4814615;29;20042;-75
2022/07/14 04:41:50;;;;;;;1.23;0.73;;;16.10;48.10;;;;;;4813623;29;20062;-76
2022/07/14 04:44:17;;;;;;;1.45;0.68;;;16.00;47.90;;;;;;4816680;29;20035;-75
2022/07/14 04:46:45;;;;;;;2.03;1.10;;;16.00;48.00;;;;;;4783372;29;20045;-75
2022/07/14 04:52:02;;;;;;;2.45;0.98;;;16.00;48.10;;;;;;4804974;29;20576;-75
2022/07/14 04:54:35;;;;;;;1.42;0.77;;;16.00;48.20;;;;;;4811326;29;20420;-75
2022/07/14 04:57:23;;;;;;;1.88;0.80;;;16.00;48.20;;;;;;4813971;29;20058;-75
2022/07/14 04:59:49;;;;;;;0.82;0.73;;;16.00;48.20;;;;;;4799285;29;20042;-75
2022/07/14 05:02:15;;;;;;;0.90;0.73;;;16.00;48.30;;;;;;4800507;29;20090;-75
2022/07/14 05:04:41;;;;;;;1.50;0.98;;;16.00;48.30;;;;;;4799993;29;20769;-75
2022/07/14 05:07:08;;;;;;;1.38;0.63;;;16.00;48.30;;;;;;4800059;29;20049;-75
2022/07/14 05:09:39;;;;;;;2.60;0.60;;;15.90;48.80;;;;;;4798870;29;20050;-75
2022/07/14 05:12:07;;;;;;;0.70;0.70;;;15.90;48.30;;;;;;4816380;29;20091;-75
2022/07/14 05:14:35;;;;;;;1.33;0.80;;;16.00;48.40;;;;;;4803387;29;20030;-75
2022/07/14 05:17:02;;;;;;;1.13;0.85;;;16.00;48.50;;;;;;4802722;29;20037;-77
2022/07/14 05:19:29;;;;;;;3.22;0.80;;;16.00;48.50;;;;;;4801594;29;20506;-74
2022/07/14 05:21:56;;;;;;;1.00;0.73;;;16.00;48.50;;;;;;4815941;29;20199;-75
2022/07/14 05:24:22;;;;;;;1.60;0.90;;;16.10;48.70;;;;;;4796768;29;20038;-74
2022/07/14 05:26:48;;;;;;;1.65;0.93;;;16.10;48.60;;;;;;4812850;29;20407;-74
2022/07/14 05:29:14;;;;;;;0.95;0.73;;;16.20;48.80;;;;;;4798831;29;20480;-75
2022/07/14 05:31:40;;;;;;;2.10;1.08;;;16.20;48.70;;;;;;4798646;29;20038;-76
2022/07/14 05:34:06;;;;;;;2.35;0.95;;;16.30;48.70;;;;;;4815626;29;20579;-75
2022/07/14 05:36:34;;;;;;;2.75;0.80;;;16.40;48.80;;;;;;4814244;29;20151;-77
2022/07/14 05:39:02;;;;;;;1.02;0.77;;;16.50;48.80;;;;;;4800573;29;20045;-76
2022/07/14 05:41:28;;;;;;;1.48;1.25;;;16.60;48.90;;;;;;4799253;29;20416;-77
2022/07/14 05:43:54;;;;;;;5.57;2.05;;;16.80;49.10;;;;;;4798934;29;20046;-77
2022/07/14 05:46:20;;;;;;;1.48;0.90;;;16.90;49.10;;;;;;4812890;29;20428;-76
2022/07/14 05:48:48;;;;;;;0.90;0.70;;;17.10;49.20;;;;;;4814061;29;20125;-78
2022/07/14 05:51:16;;;;;;;1.83;1.35;;;17.30;49.30;;;;;;4815367;29;20117;-80
2022/07/14 05:53:46;;;;;;;2.10;1.13;;;17.50;49.40;;;;;;4812473;29;20063;-79
2022/07/14 05:56:16;;;;;;;2.47;0.85;;;17.70;49.40;;;;;;4796696;29;20027;-77
2022/07/14 05:58:45;;;;;;;4.10;1.33;;;17.80;49.20;;;;;;4813540;29;20031;-79
2022/07/14 06:01:13;;;;;;;1.25;0.70;;;17.90;49.20;;;;;;4798796;29;20058;-78
2022/07/14 06:03:39;;;;;;;1.42;1.00;;;18.00;49.20;;;;;;4814517;29;20054;-77
2022/07/14 06:06:07;;;;;;;2.85;1.33;;;18.10;49.40;;;;;;4821291;29;20563;-79
2022/07/14 06:08:35;;;;;;;1.35;1.10;;;18.20;49.50;;;;;;4805155;29;20114;-77
2022/07/14 06:11:03;;;;;;;2.03;1.10;;;18.40;49.70;;;;;;4803466;29;20038;-77
2022/07/14 06:13:30;;;;;;;1.75;1.55;;;18.50;49.70;;;;;;4805578;29;20570;-78
2022/07/14 06:15:57;;;;;;;2.33;1.52;;;18.60;49.80;;;;;;4802784;29;20034;-78
2022/07/14 06:18:24;;;;;;;3.13;1.70;;;18.70;49.80;;;;;;4801268;29;20034;-77
2022/07/14 06:20:50;;;;;;;3.38;1.58;;;18.80;49.90;;;;;;4817565;29;20041;-77
2022/07/14 06:23:17;;;;;;;4.28;2.70;;;19.00;50.20;;;;;;4816669;29;20069;-77
2022/07/14 06:25:44;;;;;;;3.15;1.73;;;19.20;50.40;;;;;;4797715;29;20037;-77
2022/07/14 06:28:14;;;;;;;2.08;1.75;;;19.60;50.50;;;;;;4796285;29;20180;-75
2022/07/14 06:30:42;;;;;;;3.15;1.88;;;20.00;50.30;;;;;;4809272;29;20034;-75
2022/07/14 06:33:08;;;;;;;2.55;1.50;;;20.50;50.20;;;;;;4815825;29;20533;-81
2022/07/14 06:35:37;;;;;;;3.25;1.30;;;20.90;49.90;;;;;;4813929;29;20053;-77
2022/07/14 06:38:03;;;;;;;1.80;1.30;;;21.40;49.90;;;;;;4800658;29;20044;-78
2022/07/14 06:40:29;;;;;;;2.63;1.10;;;21.80;49.80;;;;;;4798256;29;20050;-76
2022/07/14 06:42:55;;;;;;;1.20;0.85;;;22.20;50.30;;;;;;4814350;29;20944;-76
2022/07/14 06:45:36;;;;;;;1.67;1.05;;;22.60;49.60;;;;;;4814299;29;20078;-76
2022/07/14 06:48:02;;;;;;;1.58;1.00;;;23.00;49.50;;;;;;4814472;29;20164;-76
2022/07/14 06:50:28;;;;;;;2.38;1.02;;;23.30;49.30;;;;;;4816191;29;20055;-76
2022/07/14 06:52:54;;;;;;;2.30;0.65;;;23.70;49.30;;;;;;4785073;29;20046;-76
2022/07/14 06:55:21;;;;;;;2.35;1.00;;;24.00;49.10;;;;;;4814102;29;20361;-76
2022/07/14 06:57:47;;;;;;;1.75;0.80;;;24.30;49.00;;;;;;4814036;29;20259;-76
2022/07/14 07:00:14;;;;;;;3.55;0.70;;;24.60;48.90;;;;;;4812701;29;20046;-76
2022/07/14 07:02:40;;;;;;;1.88;0.70;;;24.90;48.90;;;;;;4815029;29;20448;-76
2022/07/14 07:07:56;;;;;;;2.53;0.90;;;25.60;48.00;;;;;;4813915;29;20354;-76
2022/07/14 07:10:22;;;;;;;1.33;0.80;;;25.90;47.30;;;;;;4810801;29;20037;-76
2022/07/14 07:12:48;;;;;;;3.22;1.52;;;26.20;46.90;;;;;;4813153;29;20110;-77
2022/07/14 07:15:14;;;;;;;0.82;0.68;;;26.50;46.40;;;;;;4818224;29;20037;-76
2022/07/14 07:17:40;;;;;;;1.70;0.60;;;26.70;46.10;;;;;;4797925;29;20387;-77
2022/07/14 07:20:09;;;;;;;1.13;0.82;;;27.00;45.50;;;;;;4813959;29;20059;-76
2022/07/14 07:22:36;;;;;;;1.20;0.88;;;27.30;44.90;;;;;;4814824;29;20142;-76
2022/07/14 07:25:06;;;;;;;0.40;0.40;;;27.60;44.20;;;;;;4816203;29;20037;-77
2022/07/14 07:27:33;;;;;;;2.05;0.85;;;28.00;43.60;;;;;;4798120;29;20053;-78
2022/07/14 07:30:00;;;;;;;2.72;0.93;;;28.30;42.90;;;;;;4817926;29;20565;-77
2022/07/14 07:32:29;;;;;;;2.33;0.70;;;28.40;42.50;;;;;;4797671;29;20049;-76
2022/07/14 07:34:55;;;;;;;2.42;0.98;;;28.30;42.40;;;;;;4816198;29;20411;-76
2022/07/14 07:37:22;;;;;;;3.47;1.00;;;28.10;42.70;;;;;;4815069;29;20164;-76
2022/07/14 07:39:48;;;;;;;4.45;0.80;;;28.00;42.80;;;;;;4799694;29;20034;-76
2022/07/14 07:42:14;;;;;;;2.10;0.80;;;27.80;42.80;;;;;;4815352;29;20049;-76
2022/07/14 07:44:40;;;;;;;1.85;0.80;;;27.80;42.60;;;;;;4818763;29;20026;-76
2022/07/14 07:47:06;;;;;;;2.05;1.05;;;28.10;42.10;;;;;;4817513;29;20995;-77
2022/07/14 07:49:31;;;;;;;3.08;0.80;;;28.40;41.20;;;;;;4817735;29;20080;-77
2022/07/14 07:51:59;;;;;;;2.17;1.00;;;28.80;40.40;;;;;;4801113;29;20046;-78
2022/07/14 07:54:26;;;;;;;2.03;0.88;;;29.10;39.50;;;;;;4814738;29;20508;-75
2022/07/14 07:56:53;;;;;;;1.25;0.70;;;29.50;38.90;;;;;;4798589;29;20027;-76
2022/07/14 07:59:19;;;;;;;1.77;0.82;;;29.90;38.30;;;;;;4816322;29;20033;-75
2022/07/14 08:01:44;;;;;;;2.63;0.80;;;30.10;37.80;;;;;;4815820;29;20030;-77
2022/07/14 08:04:10;;;;;;;2.63;0.77;;;30.30;37.60;;;;;;4815914;29;20038;-75
2022/07/14 08:06:36;;;;;;;1.25;0.70;;;30.20;37.40;;;;;;4810101;29;20058;-76
2022/07/14 08:09:22;;;;;;;4.63;0.98;;;30.10;37.50;;;;;;4816487;29;20050;-77
2022/07/14 08:11:48;;;;;;;3.63;1.10;;;29.80;37.30;;;;;;4816755;29;20050;-76
2022/07/14 08:16:59;;;;;;;4.28;0.82;;;29.20;38.50;;;;;;4815932;29;20038;-76
2022/07/14 08:19:27;;;;;;;1.63;0.85;;;28.80;38.90;;;;;;4815153;29;20086;-76
2022/07/14 08:21:54;;;;;;;1.88;0.88;;;28.60;39.30;;;;;;4816316;29;20034;-77
2022/07/14 08:24:20;;;;;;;3.22;1.02;;;28.30;39.40;;;;;;4815697;29;20103;-77
2022/07/14 08:26:46;;;;;;;2.88;0.98;;;28.20;39.60;;;;;;4816366;29;20069;-76
2022/07/14 08:29:13;;;;;;;2.88;0.82;;;28.00;39.70;;;;;;4798639;29;20030;-77
2022/07/14 08:31:40;;;;;;;3.33;1.10;;;27.80;39.80;;;;;;4811470;29;20069;-77
2022/07/14 08:34:06;;;;;;;3.90;0.77;;;27.70;39.90;;;;;;4815837;29;20522;-76
2022/07/14 08:36:32;;;;;;;2.80;1.10;;;27.60;40.00;;;;;;4801425;29;20051;-75
2022/07/14 08:39:01;;;;;;;3.47;0.98;;;27.40;40.00;;;;;;4815863;29;20038;-77
2022/07/14 08:41:28;;;;;;;1.88;0.98;;;27.30;40.00;;;;;;4815171;29;20178;-77
2022/07/14 08:43:55;;;;;;;2.78;1.00;;;27.20;40.10;;;;;;4816354;29;20542;-77
2022/07/14 08:46:22;;;;;;;1.77;0.77;;;27.20;40.30;;;;;;4824033;29;20030;-78
2022/07/14 08:48:48;;;;;;;0.95;0.70;;;27.10;40.40;;;;;;4823974;29;20026;-77
2022/07/14 08:51:15;;;;;;;0.82;0.80;;;27.10;40.50;;;;;;4824179;29;20075;-76
2022/07/14 08:53:43;;;;;;;1.85;0.85;;;27.00;40.50;;;;;;4822826;29;20031;-77
2022/07/14 08:56:09;;;;;;;2.55;0.90;;;27.00;40.40;;;;;;4827462;29;20039;-76
2022/07/14 08:58:35;;;;;;;5.00;1.00;;;27.10;40.50;;;;;;4830351;29;20042;-78
2022/07/14 09:01:01;;;;;;;2.47;0.90;;;27.10;40.50;;;;;;4826708;29;20045;-76
2022/07/14 09:03:27;;;;;;;1.63;0.60;;;27.00;40.50;;;;;;4823103;29;20062;-76
2022/07/14 09:05:53;;;;;;;1.73;0.93;;;27.10;40.50;;;;;;4810815;29;20040;-76
2022/07/14 09:08:19;;;;;;;3.90;0.95;;;27.10;40.40;;;;;;4823143;29;20194;-76
2022/07/14 09:10:46;;;;;;;1.75;0.90;;;27.10;40.40;;;;;;4822549;29;20026;-76
2022/07/14 09:13:19;;;;;;;1.30;1.13;;;27.10;40.30;;;;;;4824780;29;20098;-75
2022/07/14 09:15:47;;;;;;;3.05;1.00;;;27.10;40.20;;;;;;4814583;29;20063;-76
2022/07/14 09:18:26;;;;;;;1.77;0.70;;;27.10;40.20;;;;;;4813758;29;20058;-76
2022/07/14 09:20:55;;;;;;;1.45;0.63;;;27.20;40.10;;;;;;4814072;29;20038;-76
2022/07/14 09:23:33;;;;;;;1.75;0.93;;;27.30;40.10;;;;;;4810961;29;20101;-79
2022/07/14 09:26:15;;;;;;;1.35;0.70;;;27.60;40.10;;;;;;4797009;29;20071;-78
2022/07/14 09:28:42;;;;;;;3.53;0.90;;;27.70;39.90;;;;;;4817171;29;20030;-78
2022/07/14 09:31:26;;;;;;;2.53;1.00;;;27.90;39.90;;;;;;4798378;29;20060;-76
2022/07/14 09:34:00;;;;;;;2.08;0.90;;;28.10;39.60;;;;;;4817039;29;20070;-79
2022/07/14 09:36:32;;;;;;;3.47;1.00;;;28.30;39.60;;;;;;4812902;29;20046;-77
2022/07/14 09:39:00;;;;;;;4.40;1.10;;;28.50;39.50;;;;;;4816256;29;20133;-77
2022/07/14 09:41:28;;;;;;;1.60;0.88;;;28.60;39.30;;;;;;4794402;29;20031;-77
2022/07/14 09:44:17;;;;;;;2.45;1.35;;;28.70;39.20;;;;;;4818696;29;20043;-78
2022/07/14 09:47:01;;;;;;;2.30;1.00;;;28.80;38.90;;;;;;4816622;29;20115;-75
2022/07/14 09:49:30;;;;;;;3.05;1.33;;;28.80;39.00;;;;;;4806428;29;20026;-76
2022/07/14 09:52:04;;;;;;;2.30;0.95;;;28.70;39.10;;;;;;4816552;29;20049;-77
2022/07/14 09:54:46;;;;;;;3.28;1.08;;;28.80;39.10;;;;;;4813439;29;20365;-77
2022/07/14 09:57:13;;;;;;;3.15;1.35;;;28.80;39.10;;;;;;4812632;29;20050;-78
2022/07/14 10:00:10;;;;;;;2.13;1.10;;;29.00;39.20;;;;;;4816174;29;20026;-75
2022/07/14 10:02:40;;;;;;;2.72;1.20;;;29.20;38.90;;;;;;4800553;29;20051;-75
2022/07/14 10:05:09;;;;;;;1.52;1.02;;;29.50;39.00;;;;;;4815827;29;20034;-76
2022/07/14 10:07:38;;;;;;;2.58;0.85;;;29.70;38.80;;;;;;4814846;29;20046;-76
2022/07/14 10:10:08;;;;;;;2.35;0.90;;;30.10;38.50;;;;;;4801252;29;20026;-78
2022/07/14 10:12:38;;;;;;;3.05;1.15;;;30.50;38.20;;;;;;4818457;29;20450;-77
2022/07/14 10:15:14;;;;;;;2.20;0.98;;;30.80;38.10;;;;;;4816770;29;20087;-76
2022/07/14 10:17:42;;;;;;;2.55;1.35;;;30.90;37.90;;;;;;4817925;29;20034;-77
2022/07/14 10:20:11;;;;;;;2.22;1.23;;;30.90;37.90;;;;;;4802725;29;20091;-75
2022/07/14 10:22:38;;;;;;;1.98;0.57;;;31.00;37.90;;;;;;4818510;29;20423;-76
2022/07/14 10:25:06;;;;;;;2.25;0.85;;;31.00;37.90;;;;;;4815545;29;20117;-75
2022/07/14 10:27:33;;;;;;;2.42;0.88;;;31.10;37.90;;;;;;4816658;29;20555;-76
2022/07/14 10:29:59;;;;;;;1.27;1.00;;;31.20;38.00;;;;;;4816099;29;20030;-75
2022/07/14 10:33:14;;;;;;;5.43;1.52;;;31.40;37.80;;;;;;4816028;29;20382;-77
2022/07/14 10:35:40;;;;;;;1.33;0.80;;;31.60;37.50;;;;;;4759239;30;20044;-78
2022/07/14 10:38:15;;;;;;;3.15;1.05;;;31.80;37.50;;;;;;4795213;29;20379;-75
2022/07/14 10:40:56;;;;;;;2.53;0.80;;;32.00;37.30;;;;;;4817448;29;20280;-76
2022/07/14 10:43:39;;;;;;;2.72;0.90;;;32.30;37.10;;;;;;4819870;29;20052;-76
2022/07/14 10:46:06;;;;;;;3.22;1.00;;;32.50;37.00;;;;;;4819736;29;20077;-78
2022/07/14 10:48:34;;;;;;;2.38;1.00;;;32.60;36.80;;;;;;4815892;29;20723;-81
2022/07/14 10:51:26;;;;;;;2.63;0.98;;;32.60;36.60;;;;;;4814746;29;20030;-78
2022/07/14 10:54:00;;;;;;;3.60;1.05;;;32.50;36.50;;;;;;4799319;29;20093;-78
2022/07/14 10:56:26;;;;;;;7.38;1.33;;;32.40;36.70;;;;;;4800650;29;20122;-78
2022/07/14 10:59:26;;;;;;;2.47;0.90;;;32.20;36.80;;;;;;4815363;29;20074;-78
2022/07/14 11:02:15;;;;;;;2.95;0.82;;;32.10;36.80;;;;;;4815734;29;20034;-76
2022/07/14 11:05:02;;;;;;;3.25;1.20;;;31.90;36.80;;;;;;4800754;29;20026;-77
2022/07/14 11:07:39;;;;;;;2.85;0.90;;;31.40;36.90;;;;;;4819440;29;20069;-76
2022/07/14 11:10:14;;;;;;;2.88;1.10;;;31.20;37.20;;;;;;4816649;29;20031;-76
2022/07/14 11:13:05;;;;;;;5.75;1.48;;;31.10;37.20;;;;;;4812151;29;20052;-76
2022/07/14 11:15:54;;;;;;;3.58;1.30;;;31.10;37.10;;;;;;4816556;29;20448;-77
2022/07/14 11:18:21;;;;;;;2.95;1.05;;;31.20;37.10;;;;;;4813627;29;20183;-77
2022/07/14 11:20:47;;;;;;;2.95;1.10;;;31.40;37.10;;;;;;4816258;29;20483;-77
2022/07/14 11:23:21;;;;;;;2.15;1.13;;;31.60;37.00;;;;;;4813003;29;20035;-78
2022/07/14 11:25:52;;;;;;;1.95;0.90;;;31.80;36.60;;;;;;4818590;29;20027;-78
2022/07/14 11:28:40;;;;;;;2.95;1.55;;;32.00;36.40;;;;;;4810369;29;20468;-77
2022/07/14 11:31:12;;;;;;;2.58;1.50;;;32.00;36.10;;;;;;4815168;29;20046;-79
2022/07/14 11:36:25;;;;;;;2.03;1.05;;;31.50;36.40;;;;;;4814175;29;20067;-79
2022/07/14 11:39:18;;;;;;;1.80;1.20;;;31.30;36.80;;;;;;4816885;29;20487;-81
2022/07/14 11:41:46;;;;;;;3.05;1.55;;;31.10;37.10;;;;;;4815039;29;20034;-78
2022/07/14 11:44:36;;;;;;;2.25;1.10;;;31.10;37.40;;;;;;4816037;29;20038;-78
2022/07/14 11:47:13;;;;;;;2.55;0.90;;;31.00;37.50;;;;;;4815681;29;20045;-78
2022/07/14 11:49:40;;;;;;;3.38;1.30;;;31.10;37.50;;;;;;4815530;29;20110;-79
2022/07/14 11:52:07;;;;;;;2.38;1.10;;;31.20;37.50;;;;;;4817379;29;20039;-78
2022/07/14 11:54:34;;;;;;;1.88;1.35;;;31.30;37.80;;;;;;4813768;29;20040;-79
2022/07/14 11:57:10;;;;;;;2.72;1.08;;;31.50;37.80;;;;;;4814631;29;20049;-78
2022/07/14 11:59:40;;;;;;;2.92;1.20;;;31.80;37.70;;;;;;4817015;29;20034;-79
2022/07/14 12:02:08;;;;;;;2.25;1.20;;;32.10;37.50;;;;;;4816030;29;20054;-78
2022/07/14 12:04:34;;;;;;;2.97;0.90;;;32.40;37.30;;;;;;4799156;29;20617;-79
2022/07/14 12:07:00;;;;;;;3.00;1.25;;;32.40;37.20;;;;;;4814320;29;20054;-78
2022/07/14 12:09:32;;;;;;;3.13;1.55;;;32.40;37.20;;;;;;4803671;29;20079;-77
2022/07/14 12:11:58;;;;;;;1.88;1.20;;;32.20;37.40;;;;;;4817222;29;20454;-78
2022/07/14 12:14:24;;;;;;;3.22;1.13;;;32.20;37.60;;;;;;4818489;29;20034;-77
2022/07/14 12:16:50;;;;;;;2.20;0.82;;;32.30;37.50;;;;;;4817266;29;20053;-78
2022/07/14 12:19:30;;;;;;;2.20;0.90;;;32.60;37.40;;;;;;4817000;29;20034;-78
2022/07/14 12:22:01;;;;;;;1.85;0.77;;;32.80;37.10;;;;;;4798758;29;20046;-78
2022/07/14 12:24:28;;;;;;;1.58;0.98;;;32.90;37.00;;;;;;4813030;29;20114;-77
2022/07/14 12:26:58;;;;;;;2.05;0.82;;;33.00;36.90;;;;;;4817194;29;20042;-78
2022/07/14 12:29:23;;;;;;;1.88;1.25;;;33.00;36.90;;;;;;4817006;29;20046;-78
2022/07/14 12:31:50;;;;;;;3.85;1.13;;;33.20;36.70;;;;;;4817316;29;20106;-78
2022/07/14 12:34:16;;;;;;;3.00;0.90;;;33.30;36.40;;;;;;4816197;29;20068;-77
2022/07/14 12:36:43;;;;;;;2.90;1.55;;;33.40;36.10;;;;;;4815395;29;20058;-78
2022/07/14 12:39:10;;;;;;;3.05;1.00;;;33.60;36.10;;;;;;4813625;29;20037;-77
2022/07/14 12:41:38;;;;;;;2.67;1.10;;;33.80;35.90;;;;;;4801841;29;20452;-77
2022/07/14 12:44:05;;;;;;;1.83;1.00;;;34.00;35.80;;;;;;4818020;29;20090;-78
2022/07/14 12:46:32;;;;;;;2.08;1.02;;;34.20;35.70;;;;;;4803804;29;20549;-78
2022/07/14 12:49:08;;;;;;;1.27;0.98;;;34.30;35.60;;;;;;4818409;29;20424;-78
2022/07/14 12:51:39;;;;;;;2.72;1.27;;;34.40;35.40;;;;;;4821767;29;20274;-78
2022/07/14 12:54:17;;;;;;;1.80;1.10;;;34.50;35.40;;;;;;4817381;29;20123;-78
2022/07/14 12:56:51;;;;;;;1.63;0.77;;;34.60;35.30;;;;;;4813752;29;20061;-77
2022/07/14 12:59:20;;;;;;;2.33;1.02;;;34.70;35.30;;;;;;4817422;29;20079;-77
2022/07/14 13:01:59;;;;;;;2.35;1.10;;;34.80;35.30;;;;;;4814684;29;20066;-77
2022/07/14 13:04:43;;;;;;;1.42;1.00;;;34.90;35.10;;;;;;4812448;29;20653;-76
2022/07/14 13:07:27;;;;;;;2.38;1.08;;;35.10;35.10;;;;;;4813116;29;20046;-76
2022/07/14 13:10:12;;;;;;;2.47;1.48;;;35.20;34.70;;;;;;4794125;29;20037;-76
2022/07/14 13:12:58;;;;;;;3.35;1.30;;;35.40;34.40;;;;;;4813881;29;20031;-76
2022/07/14 13:15:26;;;;;;;2.05;0.90;;;35.60;34.10;;;;;;4812951;29;20049;-79
2022/07/14 13:18:05;;;;;;;1.85;0.95;;;35.70;34.10;;;;;;4814925;29;20428;-76